createdAt,value
2018-12-04T00:00:50.009Z,1.2
2018-12-04T00:02:49.980Z,1.4
2018-12-04T00:04:50.289Z,1.4
2018-12-04T00:06:50.434Z,1.6
2018-12-04T00:08:50.412Z,1.6
2018-12-04T00:10:50.478Z,1.9
2018-12-04T00:12:50.448Z,1.4
2018-12-04T00:14:50.494Z,1.4
2018-12-04T00:16:49.681Z,1.2
2018-12-04T00:18:49.740Z,1.4
2018-12-04T00:20:49.702Z,1.5
2018-12-04T00:22:49.691Z,1.5
2018-12-04T00:24:49.712Z,1.4
2018-12-04T00:26:49.858Z,1.4
2018-12-04T00:28:49.952Z,1.6
2018-12-04T00:30:49.962Z,1.2
2018-12-04T00:32:49.972Z,1.4
2018-12-04T00:34:50.159Z,1.4
2018-12-04T00:36:50.341Z,1.5
2018-12-04T00:38:50.297Z,1.5
2018-12-04T00:40:50.368Z,1.5
2018-12-04T00:42:50.334Z,1.5
2018-12-04T00:44:50.311Z,1.5
2018-12-04T00:46:49.541Z,1.5
2018-12-04T00:48:49.525Z,1.6
2018-12-04T00:50:50.515Z,1.4
2018-12-04T00:52:49.566Z,1.4
2018-12-04T00:54:49.547Z,1.3
2018-12-04T00:56:49.754Z,1.4
2018-12-04T00:58:49.782Z,1.2
2018-12-04T01:00:49.769Z,1.6
2018-12-04T01:02:49.749Z,1.3
2018-12-04T01:04:50.122Z,1.3
2018-12-04T01:06:50.279Z,1.3
2018-12-04T01:08:50.277Z,1.2
2018-12-04T01:10:50.271Z,1.2
2018-12-04T01:12:50.362Z,1.0
2018-12-04T01:14:50.355Z,1.0
2018-12-04T01:16:49.628Z,1.3
2018-12-04T01:18:49.650Z,1.2
2018-12-04T01:20:49.659Z,1.0
2018-12-04T01:22:49.685Z,1.0
2018-12-04T01:24:49.699Z,0.9
2018-12-04T01:26:50.092Z,0.9
2018-12-04T01:28:50.056Z,0.9
2018-12-04T01:30:50.023Z,0.9
2018-12-04T01:32:50.055Z,1.0
2018-12-04T01:34:50.323Z,1.0
2018-12-04T01:36:50.387Z,1.2
2018-12-04T01:38:50.392Z,1.4
2018-12-04T01:40:50.337Z,1.4
2018-12-04T01:42:50.430Z,1.4
2018-12-04T01:44:50.321Z,1.5
2018-12-04T01:46:49.563Z,1.5
2018-12-04T01:48:49.658Z,1.8
2018-12-04T01:50:49.628Z,1.7
2018-12-04T01:52:49.602Z,1.7
2018-12-04T01:54:49.684Z,1.8
2018-12-04T01:56:49.963Z,2.2
2018-12-04T01:58:49.911Z,2.3
2018-12-04T02:00:49.921Z,2.3
2018-12-04T02:02:49.924Z,2.3
2018-12-04T02:04:50.307Z,2.4
2018-12-04T02:06:50.491Z,2.5
2018-12-04T02:08:50.524Z,2.5
2018-12-04T02:10:50.526Z,2.2
2018-12-04T02:12:50.508Z,2.2
2018-12-04T02:14:49.580Z,2.3
2018-12-04T02:16:49.829Z,2.3
2018-12-04T02:18:49.816Z,2.1
2018-12-04T02:20:49.935Z,2.1
2018-12-04T02:22:49.957Z,2.6
2018-12-04T02:24:50.029Z,2.7
2018-12-04T02:26:50.386Z,2.6
2018-12-04T02:28:50.458Z,2.9
2018-12-04T02:30:49.568Z,2.9
2018-12-04T02:32:49.616Z,2.9
2018-12-04T02:34:50.174Z,2.7
2018-12-04T02:36:50.412Z,2.4
2018-12-04T02:38:50.318Z,2.7
2018-12-04T02:40:50.407Z,2.7
2018-12-04T02:42:50.370Z,2.2
2018-12-04T02:44:50.376Z,2.2
2018-12-04T02:46:49.569Z,2.4
2018-12-04T02:48:49.575Z,2.4
2018-12-04T02:50:49.540Z,2.4
2018-12-04T02:52:50.491Z,2.0
2018-12-04T02:54:50.441Z,2.5
2018-12-04T02:56:49.658Z,2.1
2018-12-04T02:58:49.609Z,2.2
2018-12-04T03:00:49.667Z,2.2
2018-12-04T03:02:49.785Z,2.4
2018-12-04T03:04:50.325Z,2.1
2018-12-04T03:06:49.575Z,2.6
2018-12-04T03:08:49.751Z,2.6
2018-12-04T03:10:49.698Z,2.2
2018-12-04T03:12:49.797Z,1.9
2018-12-04T03:14:49.782Z,1.9
2018-12-04T03:16:49.913Z,2.2
2018-12-04T03:18:49.958Z,2.2
2018-12-04T03:20:49.971Z,1.9
2018-12-04T03:22:49.996Z,2.1
2018-12-04T03:24:50.015Z,1.9
2018-12-04T03:26:50.177Z,2.0
2018-12-04T03:28:50.152Z,2.0
2018-12-04T03:30:50.168Z,2.0
2018-12-04T03:32:50.321Z,1.8
2018-12-04T03:34:49.646Z,2.1
2018-12-04T03:36:50.058Z,1.8
2018-12-04T03:38:49.960Z,1.8
2018-12-04T03:40:49.902Z,1.8
2018-12-04T03:42:49.913Z,1.7
2018-12-04T03:44:49.862Z,1.7
2018-12-04T03:46:50.012Z,1.7
2018-12-04T03:48:50.020Z,1.5
2018-12-04T03:50:50.018Z,1.9
2018-12-04T03:52:50.028Z,1.7
2018-12-04T03:54:50.052Z,1.7
2018-12-04T03:56:50.277Z,1.7
2018-12-04T03:58:50.333Z,1.7
2018-12-04T04:00:50.224Z,1.5
2018-12-04T04:02:50.266Z,1.7
2018-12-04T04:04:49.655Z,1.7
2018-12-04T04:06:49.839Z,1.3
2018-12-04T04:08:49.799Z,1.3
2018-12-04T04:10:49.860Z,1.6
2018-12-04T04:12:49.841Z,1.6
2018-12-04T04:14:49.823Z,1.6
2018-12-04T04:16:50.050Z,1.4
2018-12-04T04:18:50.005Z,1.4
2018-12-04T04:20:49.982Z,1.6
2018-12-04T04:22:50.030Z,1.6
2018-12-04T04:24:50.052Z,1.5
2018-12-04T04:26:50.314Z,1.5
2018-12-04T04:28:50.304Z,1.7
2018-12-04T04:30:50.294Z,1.5
2018-12-04T04:32:50.250Z,1.5
2018-12-04T04:34:49.719Z,1.5
2018-12-04T04:36:49.840Z,1.3
2018-12-04T04:38:49.862Z,1.4
2018-12-04T04:40:49.868Z,1.5
2018-12-04T04:42:49.883Z,1.5
2018-12-04T04:44:49.867Z,1.4
2018-12-04T04:46:50.036Z,1.4
2018-12-04T04:48:50.080Z,1.6
2018-12-04T04:50:50.070Z,1.5
2018-12-04T04:52:50.118Z,1.5
2018-12-04T04:54:50.159Z,1.5
2018-12-04T04:56:50.365Z,1.6
2018-12-04T04:58:50.355Z,1.4
2018-12-04T05:00:50.382Z,1.6
2018-12-04T05:02:50.387Z,1.6
2018-12-04T05:04:49.738Z,1.4
2018-12-04T05:06:49.838Z,1.5
2018-12-04T05:08:49.849Z,1.4
2018-12-04T05:10:49.857Z,1.5
2018-12-04T05:12:49.808Z,1.5
2018-12-04T05:14:49.800Z,1.6
2018-12-04T05:16:50.004Z,1.5
2018-12-04T05:18:49.989Z,1.5
2018-12-04T05:20:50.037Z,1.5
2018-12-04T05:22:50.077Z,1.5
2018-12-04T05:24:50.124Z,1.7
2018-12-04T05:26:49.792Z,1.4
2018-12-04T05:28:49.821Z,1.5
2018-12-04T05:30:49.817Z,1.5
2018-12-04T05:32:49.856Z,1.7
2018-12-04T05:34:50.262Z,1.7
2018-12-04T05:36:50.413Z,1.8
2018-12-04T05:38:50.524Z,1.6
2018-12-04T05:40:49.551Z,1.6
2018-12-04T05:42:49.702Z,1.7
2018-12-04T05:44:49.624Z,1.7
2018-12-04T05:46:49.849Z,1.6
2018-12-04T05:48:49.819Z,1.7
2018-12-04T05:50:49.775Z,1.6
2018-12-04T05:52:49.752Z,1.6
2018-12-04T05:54:49.794Z,1.6
2018-12-04T05:56:49.977Z,1.8
2018-12-04T05:58:49.991Z,1.9
2018-12-04T06:00:50.047Z,1.8
2018-12-04T06:02:50.034Z,1.8
2018-12-04T06:04:50.319Z,1.6
2018-12-04T06:06:49.618Z,1.8
2018-12-04T06:08:49.592Z,1.7
2018-12-04T06:10:49.573Z,1.7
2018-12-04T06:12:49.593Z,1.9
2018-12-04T06:14:49.587Z,1.9
2018-12-04T06:16:49.772Z,1.9
2018-12-04T06:18:49.759Z,2.0
2018-12-04T06:20:49.768Z,2.0
2018-12-04T06:22:49.719Z,2.0
2018-12-04T06:24:49.780Z,2.4
2018-12-04T06:26:49.920Z,2.2
2018-12-04T06:28:49.910Z,2.2
2018-12-04T06:30:49.850Z,2.4
2018-12-04T06:32:49.871Z,2.5
2018-12-04T06:34:50.108Z,2.8
2018-12-04T06:36:49.865Z,2.7
2018-12-04T06:38:49.818Z,2.7
2018-12-04T06:40:49.749Z,3.0
2018-12-04T06:42:49.720Z,3.0
2018-12-04T06:44:49.774Z,3.0
2018-12-04T06:46:49.913Z,2.2
2018-12-04T06:48:49.915Z,1.9
2018-12-04T06:50:49.895Z,1.9
2018-12-04T06:52:49.896Z,2.0
2018-12-04T06:54:49.892Z,1.6
2018-12-04T06:56:50.207Z,1.6
2018-12-04T06:58:50.211Z,1.6
2018-12-04T07:00:50.121Z,1.6
2018-12-04T07:02:50.072Z,1.8
2018-12-04T07:04:50.478Z,2.2
2018-12-04T07:06:49.673Z,2.0
2018-12-04T07:08:49.653Z,2.3
2018-12-04T07:10:49.796Z,2.3
2018-12-04T07:12:50.302Z,2.5
2018-12-04T07:14:50.279Z,2.2
2018-12-04T07:16:49.572Z,2.0
2018-12-04T07:18:49.546Z,2.0
2018-12-04T07:20:49.553Z,2.2
2018-12-04T07:22:50.558Z,2.4
2018-12-04T07:24:49.680Z,2.1
2018-12-04T07:26:49.886Z,2.2
2018-12-04T07:28:49.792Z,2.2
2018-12-04T07:30:49.757Z,2.4
2018-12-04T07:32:49.786Z,2.5
2018-12-04T07:34:50.206Z,2.9
2018-12-04T07:36:50.485Z,2.8
2018-12-04T07:38:50.489Z,2.8
2018-12-04T07:40:49.575Z,3.2
2018-12-04T07:42:49.581Z,2.8
2018-12-04T07:44:49.688Z,3.4
2018-12-04T07:46:50.015Z,2.9
2018-12-04T07:48:49.958Z,2.9
2018-12-04T07:50:49.931Z,2.9
2018-12-04T07:52:49.913Z,3.1
2018-12-04T07:54:49.929Z,3.2
2018-12-04T07:56:50.038Z,3.2
2018-12-04T07:58:50.102Z,3.3
2018-12-04T08:00:50.118Z,3.1
2018-12-04T08:02:50.258Z,2.9
2018-12-04T08:04:50.394Z,2.9
2018-12-04T08:06:49.648Z,2.9
2018-12-04T08:08:49.759Z,2.9
2018-12-04T08:10:49.693Z,2.6
2018-12-04T08:12:49.700Z,2.6
2018-12-04T08:14:49.729Z,2.6
2018-12-04T08:16:49.900Z,2.9
2018-12-04T08:18:49.901Z,2.6
2018-12-04T08:20:49.932Z,2.5
2018-12-04T08:22:49.960Z,2.8
2018-12-04T08:24:49.903Z,2.8
2018-12-04T08:26:50.010Z,1.8
2018-12-04T08:28:49.993Z,1.6
2018-12-04T08:30:50.037Z,1.6
2018-12-04T08:32:50.010Z,1.4
2018-12-04T08:34:50.284Z,1.3
2018-12-04T08:36:50.443Z,1.3
2018-12-04T08:38:50.449Z,1.0
2018-12-04T08:40:50.495Z,1.4
2018-12-04T08:42:49.623Z,1.4
2018-12-04T08:44:49.546Z,1.0
2018-12-04T08:46:49.806Z,1.0
2018-12-04T08:48:49.763Z,1.2
2018-12-04T08:50:49.782Z,1.2
2018-12-04T08:52:49.902Z,1.1
2018-12-04T08:54:49.897Z,1.1
2018-12-04T08:56:50.132Z,1.1
2018-12-04T08:58:50.165Z,1.3
2018-12-04T09:00:50.179Z,1.6
2018-12-04T09:02:50.166Z,1.6
2018-12-04T09:04:49.650Z,1.7
2018-12-04T09:06:50.053Z,1.3
2018-12-04T09:08:50.374Z,1.1
2018-12-04T09:10:49.555Z,1.4
2018-12-04T09:12:49.712Z,1.4
2018-12-04T09:14:49.683Z,1.0
2018-12-04T09:16:49.932Z,1.2
2018-12-04T09:18:50.026Z,1.0
2018-12-04T09:20:50.137Z,1.2
2018-12-04T09:22:50.241Z,1.2
2018-12-04T09:24:49.551Z,1.1
2018-12-04T09:26:49.838Z,1.3
2018-12-04T09:28:49.975Z,1.1
2018-12-04T09:30:50.174Z,1.1
2018-12-04T09:32:50.154Z,1.4
2018-12-04T09:34:50.348Z,1.2
2018-12-04T09:36:49.534Z,1.1
2018-12-04T09:38:50.461Z,1.4
2018-12-04T09:40:50.446Z,1.4
2018-12-04T09:42:50.414Z,1.3
2018-12-04T09:44:50.351Z,1.2
2018-12-04T09:46:49.588Z,1.4
2018-12-04T09:48:49.584Z,1.4
2018-12-04T09:50:49.544Z,1.2
2018-12-04T09:52:49.597Z,1.2
2018-12-04T09:54:49.632Z,1.2
2018-12-04T09:56:49.941Z,1.3
2018-12-04T09:58:49.969Z,1.5
2018-12-04T10:00:49.911Z,1.5
2018-12-04T10:02:49.866Z,1.4
2018-12-04T10:04:50.071Z,2.2
2018-12-04T10:06:50.329Z,1.5
2018-12-04T10:08:50.306Z,1.2
2018-12-04T10:10:50.289Z,1.4
2018-12-04T10:12:50.420Z,1.4
2018-12-04T10:14:50.484Z,1.5
2018-12-04T10:16:49.771Z,1.3
2018-12-04T10:18:49.757Z,1.3
2018-12-04T10:20:49.750Z,2.2
2018-12-04T10:22:49.743Z,2.2
2018-12-04T10:24:49.781Z,1.5
2018-12-04T10:26:49.887Z,1.4
2018-12-04T10:28:49.889Z,1.4
2018-12-04T10:30:49.880Z,1.1
2018-12-04T10:32:49.990Z,1.3
2018-12-04T10:34:50.200Z,1.4
2018-12-04T10:36:50.380Z,1.3
2018-12-04T10:38:50.319Z,1.3
2018-12-04T10:40:50.310Z,1.3
2018-12-04T10:42:50.182Z,1.3
2018-12-04T10:44:50.140Z,1.3
2018-12-04T10:46:50.307Z,1.3
2018-12-04T10:48:50.296Z,1.0
2018-12-04T10:50:50.266Z,1.1
2018-12-04T10:52:50.383Z,1.0
2018-12-04T10:54:50.386Z,1.2
2018-12-04T10:56:49.557Z,1.1
2018-12-04T10:58:49.722Z,1.1
2018-12-04T11:00:49.713Z,1.1
2018-12-04T11:02:50.101Z,1.2
2018-12-04T11:04:50.462Z,1.1
2018-12-04T11:06:49.748Z,0.9
2018-12-04T11:08:49.814Z,0.9
2018-12-04T11:10:49.839Z,1.0
2018-12-04T11:12:49.873Z,1.1
2018-12-04T11:14:49.870Z,1.2
2018-12-04T11:16:50.146Z,1.2
2018-12-04T11:18:50.181Z,1.0
2018-12-04T11:20:50.195Z,1.0
2018-12-04T11:22:50.240Z,1.1
2018-12-04T11:24:50.208Z,1.1
2018-12-04T11:26:50.356Z,1.1
2018-12-04T11:28:50.372Z,1.3
2018-12-04T11:30:50.302Z,1.3
2018-12-04T11:32:50.379Z,1.3
2018-12-04T11:34:49.821Z,1.3
2018-12-04T11:36:49.967Z,1.3
2018-12-04T11:38:49.961Z,1.2
2018-12-04T11:40:50.040Z,1.3
2018-12-04T11:42:50.141Z,1.3
2018-12-04T11:44:50.250Z,1.4
2018-12-04T11:46:49.547Z,1.3
2018-12-04T11:48:50.447Z,1.3
2018-12-04T11:50:50.467Z,1.6
2018-12-04T11:52:50.464Z,1.2
2018-12-04T11:54:50.413Z,1.4
2018-12-04T11:56:49.576Z,1.5
2018-12-04T11:58:50.482Z,1.5
2018-12-04T12:00:50.547Z,1.3
2018-12-04T12:02:49.501Z,1.5
2018-12-04T12:04:49.754Z,1.5
2018-12-04T12:06:49.948Z,1.5
2018-12-04T12:08:49.899Z,1.4
2018-12-04T12:10:49.917Z,1.5
2018-12-04T12:12:49.942Z,1.5
2018-12-04T12:14:49.959Z,1.5
2018-12-04T12:16:50.252Z,1.4
2018-12-04T12:18:50.416Z,1.5
2018-12-04T12:20:49.548Z,1.6
2018-12-04T12:22:49.699Z,1.6
2018-12-04T12:24:49.875Z,1.3
2018-12-04T12:26:50.255Z,1.6
2018-12-04T12:28:50.487Z,1.6
2018-12-04T12:30:49.641Z,1.4
2018-12-04T12:32:49.731Z,1.6
2018-12-04T12:34:50.174Z,1.4
2018-12-04T12:36:49.518Z,1.4
2018-12-04T12:38:49.708Z,1.5
2018-12-04T12:40:49.741Z,1.3
2018-12-04T12:42:49.678Z,1.4
2018-12-04T12:44:49.708Z,1.4
2018-12-04T12:46:49.904Z,1.4
2018-12-04T12:48:49.887Z,1.4
2018-12-04T12:50:49.851Z,1.6
2018-12-04T12:52:49.855Z,1.5
2018-12-04T12:54:49.846Z,1.5
2018-12-04T12:56:50.099Z,1.6
2018-12-04T12:58:50.485Z,1.4
2018-12-04T13:00:50.500Z,1.4
2018-12-04T13:02:50.446Z,1.4
2018-12-04T13:04:49.699Z,1.4
2018-12-04T13:06:49.874Z,1.3
2018-12-04T13:08:49.840Z,1.4
2018-12-04T13:10:49.817Z,1.4
2018-12-04T13:12:49.848Z,1.4
2018-12-04T13:14:49.842Z,1.3
2018-12-04T13:16:49.932Z,1.3
2018-12-04T13:18:49.928Z,1.3
2018-12-04T13:20:50.164Z,1.6
2018-12-04T13:22:50.401Z,1.6
2018-12-04T13:24:50.310Z,1.5
2018-12-04T13:26:50.516Z,1.2
2018-12-04T13:28:50.409Z,1.7
2018-12-04T13:30:50.492Z,1.8
2018-12-04T13:32:49.964Z,1.8
2018-12-04T13:34:50.250Z,1.9
2018-12-04T13:36:50.463Z,1.4
2018-12-04T13:38:49.603Z,1.4
2018-12-04T13:40:49.643Z,2.0
2018-12-04T13:42:49.627Z,1.9
2018-12-04T13:44:49.658Z,1.8
2018-12-04T13:46:49.907Z,1.8
2018-12-04T13:48:49.916Z,1.8
2018-12-04T13:50:49.958Z,1.9
2018-12-04T13:52:49.975Z,2.1
2018-12-04T13:54:50.099Z,2.1
2018-12-04T13:56:50.230Z,1.7
2018-12-04T13:58:50.242Z,1.8
2018-12-04T14:00:50.298Z,1.9
2018-12-04T14:02:50.372Z,1.6
2018-12-04T14:04:49.827Z,1.6
2018-12-04T14:06:50.021Z,1.9
2018-12-04T14:08:50.081Z,1.6
2018-12-04T14:10:50.142Z,1.6
2018-12-04T14:12:50.233Z,1.6
2018-12-04T14:14:50.352Z,2.0
2018-12-04T14:16:50.466Z,1.7
2018-12-04T14:18:50.561Z,1.7
2018-12-04T14:20:49.698Z,1.8
2018-12-04T14:22:49.699Z,1.8
2018-12-04T14:24:49.693Z,1.7
2018-12-04T14:26:49.888Z,2.2
2018-12-04T14:28:49.868Z,2.2
2018-12-04T14:30:49.981Z,2.2
2018-12-04T14:32:50.031Z,2.2
2018-12-04T14:34:50.454Z,1.6
2018-12-04T14:36:49.624Z,1.6
2018-12-04T14:38:49.640Z,1.9
2018-12-04T14:40:49.678Z,1.9
2018-12-04T14:42:49.742Z,1.9
2018-12-04T14:44:49.795Z,2.0
2018-12-04T14:46:50.198Z,2.1
2018-12-04T14:48:50.361Z,1.7
2018-12-04T14:50:50.335Z,1.7
2018-12-04T14:52:50.372Z,2.2
2018-12-04T14:54:50.428Z,2.0
2018-12-04T14:56:49.744Z,2.0
2018-12-04T14:58:51.026Z,2.0
2018-12-04T15:00:50.187Z,1.8
2018-12-04T15:02:50.212Z,2.2
2018-12-04T15:04:49.686Z,2.1
2018-12-04T15:06:49.876Z,2.1
2018-12-04T15:08:50.178Z,1.9
2018-12-04T15:10:50.196Z,2.0
2018-12-04T15:12:50.300Z,2.1
2018-12-04T15:14:50.410Z,2.4
2018-12-04T15:16:55.369Z,2.4
2018-12-04T15:18:50.480Z,6.4
2018-12-04T15:20:49.571Z,2.7
2018-12-04T15:22:49.691Z,2.0
2018-12-04T15:24:49.712Z,2.7
2018-12-04T15:26:50.026Z,2.7
2018-12-04T15:28:50.139Z,2.1
2018-12-04T15:30:50.196Z,2.1
2018-12-04T15:32:50.256Z,2.9
2018-12-04T15:34:49.718Z,2.4
2018-12-04T15:36:56.832Z,2.4
2018-12-04T15:38:49.939Z,2.1
2018-12-04T15:40:50.004Z,2.1
2018-12-04T15:42:50.062Z,2.6
2018-12-04T15:44:50.072Z,2.9
2018-12-04T15:46:50.370Z,2.9
2018-12-04T15:48:50.489Z,2.5
2018-12-04T15:50:50.515Z,2.5
2018-12-04T15:52:50.556Z,2.5
2018-12-04T15:54:49.733Z,2.7
2018-12-04T15:56:49.941Z,2.6
2018-12-04T15:58:50.155Z,2.8
2018-12-04T16:00:50.136Z,2.8
2018-12-04T16:02:50.169Z,2.4
2018-12-04T16:04:49.593Z,2.4
2018-12-04T16:06:49.681Z,2.3
2018-12-04T16:08:49.687Z,2.3
2018-12-04T16:10:49.803Z,2.3
2018-12-04T16:12:49.865Z,2.7
2018-12-04T16:14:49.804Z,2.7
2018-12-04T16:16:49.952Z,2.7
2018-12-04T16:18:49.932Z,2.5
2018-12-04T16:20:49.898Z,2.6
2018-12-04T16:22:49.873Z,3.0
2018-12-04T16:24:49.809Z,3.0
2018-12-04T16:26:49.996Z,3.1
2018-12-04T16:28:49.926Z,3.1
2018-12-04T16:30:49.933Z,3.4
2018-12-04T16:32:49.993Z,3.4
2018-12-04T16:34:50.249Z,3.1
2018-12-04T16:36:49.551Z,3.6
2018-12-04T16:38:49.617Z,3.0
2018-12-04T16:40:49.620Z,3.0
2018-12-04T16:42:49.606Z,3.0
2018-12-04T16:44:49.699Z,4.1
2018-12-04T16:46:49.937Z,4.1
2018-12-04T16:48:50.005Z,3.1
2018-12-04T16:50:50.046Z,3.4
2018-12-04T16:52:50.021Z,3.4
2018-12-04T16:54:49.995Z,3.7
2018-12-04T16:56:50.118Z,3.7
2018-12-04T16:58:50.136Z,3.9
2018-12-04T17:00:50.173Z,4.1
2018-12-04T17:02:50.183Z,3.8
2018-12-04T17:04:49.586Z,3.8
2018-12-04T17:06:49.797Z,3.8
2018-12-04T17:08:49.787Z,4.0
2018-12-04T17:10:49.733Z,4.4
2018-12-04T17:12:49.726Z,4.4
2018-12-04T17:14:49.702Z,3.9
2018-12-04T17:16:50.005Z,3.8
2018-12-04T17:18:49.958Z,3.8
2018-12-04T17:20:50.312Z,3.9
2018-12-04T17:22:50.338Z,3.9
2018-12-04T17:24:50.249Z,3.6
2018-12-04T17:26:49.599Z,3.8
2018-12-04T17:28:49.536Z,4.1
2018-12-04T17:30:49.647Z,4.4
2018-12-04T17:32:49.827Z,4.4
2018-12-04T17:34:50.240Z,4.2
2018-12-04T17:36:50.409Z,4.6
2018-12-04T17:38:50.371Z,4.6
2018-12-04T17:40:50.415Z,4.5
2018-12-04T17:42:50.427Z,4.5
2018-12-04T17:44:50.395Z,4.2
2018-12-04T17:46:49.642Z,4.2
2018-12-04T17:48:49.606Z,4.2
2018-12-04T17:50:49.647Z,4.5
2018-12-04T17:52:49.751Z,4.2
2018-12-04T17:54:49.785Z,4.5
2018-12-04T17:56:50.109Z,4.4
2018-12-04T17:58:50.151Z,4.6
2018-12-04T18:00:50.118Z,4.6
2018-12-04T18:02:50.207Z,4.9
2018-12-04T18:04:50.488Z,4.9
2018-12-04T18:06:49.768Z,5.5
2018-12-04T18:08:49.867Z,5.5
2018-12-04T18:10:49.880Z,5.5
2018-12-04T18:12:49.831Z,5.7
2018-12-04T18:14:49.859Z,5.3
2018-12-04T18:16:50.081Z,5.6
2018-12-04T18:18:50.053Z,5.6
2018-12-04T18:20:50.062Z,5.6
2018-12-04T18:22:50.006Z,5.7
2018-12-04T18:24:50.038Z,6.8
2018-12-04T18:26:50.283Z,7.5
2018-12-04T18:28:50.276Z,7.6
2018-12-04T18:30:50.259Z,6.0
2018-12-04T18:32:50.435Z,6.0
2018-12-04T18:34:49.974Z,6.5
2018-12-04T18:36:50.091Z,7.8
2018-12-04T18:38:50.061Z,7.2
2018-12-04T18:40:50.085Z,7.2
2018-12-04T18:42:50.095Z,8.0
2018-12-04T18:44:50.077Z,6.7
2018-12-04T18:46:50.409Z,6.7
2018-12-04T18:48:50.355Z,6.7
2018-12-04T18:50:50.387Z,6.5
2018-12-04T18:52:50.327Z,6.5
2018-12-04T18:54:50.289Z,5.6
2018-12-04T18:56:50.462Z,5.5
2018-12-04T18:58:50.417Z,5.5
2018-12-04T19:00:50.563Z,6.1
2018-12-04T19:02:49.616Z,5.2
2018-12-04T19:04:49.858Z,6.2
2018-12-04T19:06:49.972Z,6.2
2018-12-04T19:08:49.964Z,5.5
2018-12-04T19:10:50.035Z,5.6
2018-12-04T19:12:50.026Z,5.6
2018-12-04T19:14:50.048Z,5.2
2018-12-04T19:16:50.174Z,5.2
2018-12-04T19:18:50.159Z,5.2
2018-12-04T19:20:50.228Z,5.1
2018-12-04T19:22:50.304Z,5.4
2018-12-04T19:24:50.349Z,5.4
2018-12-04T19:26:49.603Z,5.3
2018-12-04T19:28:49.553Z,4.9
2018-12-04T19:30:49.661Z,4.9
2018-12-04T19:32:49.619Z,6.0
2018-12-04T19:34:50.111Z,5.7
2018-12-04T19:36:50.287Z,5.7
2018-12-04T19:38:50.272Z,5.4
2018-12-04T19:40:50.334Z,5.4
2018-12-04T19:42:50.223Z,5.4
2018-12-04T19:44:50.226Z,5.3
2018-12-04T19:46:50.320Z,5.3
2018-12-04T19:48:50.226Z,4.9
2018-12-04T19:50:50.233Z,5.6
2018-12-04T19:52:50.084Z,5.6
2018-12-04T19:54:49.913Z,5.1
2018-12-04T19:56:49.888Z,5.5
2018-12-04T19:58:49.719Z,6.0
2018-12-04T20:00:49.531Z,6.4
2018-12-04T20:02:49.532Z,5.8
2018-12-04T20:04:49.626Z,5.8
2018-12-04T20:06:49.794Z,6.0
2018-12-04T20:08:52.352Z,6.0
2018-12-04T20:10:50.159Z,7.5
2018-12-04T20:12:49.996Z,7.4
2018-12-04T20:14:49.790Z,7.4
2018-12-04T20:16:49.959Z,6.8
2018-12-04T20:18:49.798Z,6.1
2018-12-04T20:20:49.697Z,6.6
2018-12-04T20:22:50.503Z,6.6
2018-12-04T20:24:50.294Z,6.5
2018-12-04T20:26:50.368Z,7.3
2018-12-04T20:28:50.234Z,6.1
2018-12-04T20:30:50.072Z,6.3
2018-12-04T20:32:49.952Z,6.8
2018-12-04T20:34:49.951Z,6.8
2018-12-04T20:36:50.075Z,7.1
2018-12-04T20:38:49.850Z,6.7
2018-12-04T20:40:49.693Z,6.1
2018-12-04T20:42:50.475Z,7.1
2018-12-04T20:44:50.355Z,7.1
2018-12-04T20:46:50.465Z,8.0
2018-12-04T20:48:50.254Z,7.8
2018-12-04T20:50:50.151Z,7.8
2018-12-04T20:52:49.997Z,7.8
2018-12-04T20:54:49.817Z,7.5
2018-12-04T20:56:50.002Z,6.8
2018-12-04T20:58:49.808Z,7.4
2018-12-04T21:00:49.599Z,6.6
2018-12-04T21:02:50.439Z,6.6
2018-12-04T21:04:49.793Z,8.3
2018-12-04T21:06:49.977Z,8.3
2018-12-04T21:08:49.803Z,8.6
2018-12-04T21:10:49.711Z,8.8
2018-12-04T21:12:49.609Z,8.8
2018-12-04T21:14:50.409Z,8.4
2018-12-04T21:16:50.260Z,9.5
2018-12-04T21:18:50.073Z,9.5
2018-12-04T21:20:49.908Z,10.0
2018-12-04T21:22:49.800Z,10.0
2018-12-04T21:24:49.559Z,10.0
2018-12-04T21:26:49.641Z,10.8
2018-12-04T21:28:50.508Z,10.3
2018-12-04T21:30:50.369Z,10.3
2018-12-04T21:32:50.136Z,10.3
2018-12-04T21:34:50.460Z,8.6
2018-12-04T21:36:50.522Z,9.3
2018-12-04T21:38:50.334Z,10.5
2018-12-04T21:40:50.164Z,8.3
2018-12-04T21:42:50.019Z,8.3
2018-12-04T21:44:49.778Z,8.3
2018-12-04T21:46:50.029Z,8.1
2018-12-04T21:48:49.856Z,7.8
2018-12-04T21:50:49.723Z,8.2
2018-12-04T21:52:49.536Z,8.2
2018-12-04T21:54:50.449Z,8.0
2018-12-04T21:56:50.358Z,8.5
2018-12-04T21:58:50.277Z,8.3
2018-12-04T22:00:50.044Z,8.3
2018-12-04T22:02:49.885Z,9.2
2018-12-04T22:04:50.173Z,10.5
2018-12-04T22:06:50.269Z,10.1
2018-12-04T22:08:50.093Z,10.2
2018-12-04T22:10:49.918Z,10.2
2018-12-04T22:12:49.728Z,10.2
2018-12-04T22:14:49.664Z,11.0
2018-12-04T22:16:49.670Z,10.2
2018-12-04T22:18:50.530Z,9.6
2018-12-04T22:20:50.378Z,9.6
2018-12-04T22:22:50.220Z,9.4
2018-12-04T22:24:50.026Z,9.2
2018-12-04T22:26:50.066Z,9.6
2018-12-04T22:28:49.874Z,10.5
2018-12-04T22:30:49.648Z,10.5
2018-12-04T22:32:49.597Z,9.7
2018-12-04T22:34:49.946Z,9.0
2018-12-04T22:36:49.956Z,9.0
2018-12-04T22:38:49.761Z,9.3
2018-12-04T22:40:49.607Z,9.3
2018-12-04T22:42:49.605Z,9.3
2018-12-04T22:44:50.393Z,9.3
2018-12-04T22:46:50.484Z,9.4
2018-12-04T22:48:50.311Z,9.4
2018-12-04T22:50:50.153Z,10.3
2018-12-04T22:52:50.018Z,10.4
2018-12-04T22:54:49.872Z,10.4
2018-12-04T22:56:49.981Z,11.0
2018-12-04T22:58:49.826Z,11.0
2018-12-04T23:00:49.638Z,10.8
2018-12-04T23:02:50.493Z,10.1
2018-12-04T23:04:49.791Z,10.7
2018-12-04T23:06:49.897Z,10.6
2018-12-04T23:08:49.675Z,10.6
2018-12-04T23:10:49.560Z,10.7
2018-12-04T23:12:50.343Z,12.1
2018-12-04T23:14:50.204Z,11.3
2018-12-04T23:16:50.380Z,11.0
2018-12-04T23:18:50.220Z,11.0
2018-12-04T23:20:50.350Z,11.3
2018-12-04T23:22:50.210Z,11.2
2018-12-04T23:24:49.965Z,11.2
2018-12-04T23:26:49.974Z,11.3
2018-12-04T23:28:49.730Z,10.4
2018-12-04T23:30:49.537Z,10.3
2018-12-04T23:32:50.291Z,10.8
2018-12-04T23:34:49.538Z,10.8
2018-12-04T23:36:49.555Z,10.8
2018-12-04T23:38:50.426Z,10.2
2018-12-04T23:40:50.218Z,10.6
2018-12-04T23:42:50.138Z,10.6
2018-12-04T23:44:50.008Z,11.0
2018-12-04T23:46:49.982Z,11.9
2018-12-04T23:48:49.833Z,11.9
2018-12-04T23:50:49.638Z,12.0
2018-12-04T23:52:49.537Z,10.9
2018-12-04T23:54:51.507Z,10.9
2018-12-04T23:56:49.614Z,10.8
2018-12-04T23:58:50.502Z,11.1
